sensor_id;sensor_type;location;lat;lon;timestamp;P1;durP1;ratioP1;P2;durP2;ratioP2
52456;SDS011;38369;52.840;7.082;2024-03-06T00:00:16;17.38;;;11.32;;
52456;SDS011;38369;52.840;7.082;2024-03-06T00:02:42;18.30;;;11.32;;
52456;SDS011;38369;52.840;7.082;2024-03-06T00:05:08;21.65;;;11.25;;
52456;SDS011;38369;52.840;7.082;2024-03-06T00:07:34;20.65;;;11.55;;
52456;SDS011;38369;52.840;7.082;2024-03-06T00:10:00;20.30;;;11.63;;
52456;SDS011;38369;52.840;7.082;2024-03-06T00:12:26;18.27;;;11.20;;
52456;SDS011;38369;52.840;7.082;2024-03-06T00:14:52;15.32;;;11.20;;
52456;SDS011;38369;52.840;7.082;2024-03-06T00:17:18;20.30;;;11.02;;
52456;SDS011;38369;52.840;7.082;2024-03-06T00:19:44;17.13;;;10.45;;
52456;SDS011;38369;52.840;7.082;2024-03-06T00:22:10;22.08;;;10.57;;
52456;SDS011;38369;52.840;7.082;2024-03-06T00:24:36;24.70;;;10.15;;
52456;SDS011;38369;52.840;7.082;2024-03-06T00:27:02;17.75;;;10.90;;
52456;SDS011;38369;52.840;7.082;2024-03-06T00:29:30;18.60;;;11.60;;
52456;SDS011;38369;52.840;7.082;2024-03-06T00:31:56;21.17;;;11.20;;
52456;SDS011;38369;52.840;7.082;2024-03-06T00:34:22;14.75;;;10.43;;
52456;SDS011;38369;52.840;7.082;2024-03-06T00:36:48;16.30;;;11.77;;
52456;SDS011;38369;52.840;7.082;2024-03-06T00:39:14;16.98;;;11.23;;
52456;SDS011;38369;52.840;7.082;2024-03-06T00:41:40;22.42;;;10.80;;
52456;SDS011;38369;52.840;7.082;2024-03-06T00:44:07;22.27;;;11.23;;
52456;SDS011;38369;52.840;7.082;2024-03-06T00:46:33;21.27;;;11.40;;
52456;SDS011;38369;52.840;7.082;2024-03-06T00:48:59;17.60;;;9.25;;
52456;SDS011;38369;52.840;7.082;2024-03-06T00:51:25;21.10;;;11.00;;
52456;SDS011;38369;52.840;7.082;2024-03-06T00:53:51;16.65;;;10.80;;
52456;SDS011;38369;52.840;7.082;2024-03-06T00:56:17;17.23;;;10.48;;
52456;SDS011;38369;52.840;7.082;2024-03-06T00:58:43;15.93;;;10.55;;
52456;SDS011;38369;52.840;7.082;2024-03-06T01:01:10;21.08;;;10.57;;
52456;SDS011;38369;52.840;7.082;2024-03-06T01:03:37;16.30;;;9.82;;
52456;SDS011;38369;52.840;7.082;2024-03-06T01:06:03;16.73;;;11.85;;
52456;SDS011;38369;52.840;7.082;2024-03-06T01:08:29;21.85;;;11.05;;
52456;SDS011;38369;52.840;7.082;2024-03-06T01:10:56;23.05;;;11.27;;
52456;SDS011;38369;52.840;7.082;2024-03-06T01:13:23;18.02;;;11.18;;
52456;SDS011;38369;52.840;7.082;2024-03-06T01:15:49;15.98;;;10.57;;
52456;SDS011;38369;52.840;7.082;2024-03-06T01:18:15;16.50;;;10.50;;
52456;SDS011;38369;52.840;7.082;2024-03-06T01:20:41;16.60;;;10.77;;
52456;SDS011;38369;52.840;7.082;2024-03-06T01:23:07;18.17;;;10.82;;
52456;SDS011;38369;52.840;7.082;2024-03-06T01:25:33;22.50;;;11.43;;
52456;SDS011;38369;52.840;7.082;2024-03-06T01:27:59;19.48;;;11.20;;
52456;SDS011;38369;52.840;7.082;2024-03-06T01:30:25;20.33;;;10.38;;
52456;SDS011;38369;52.840;7.082;2024-03-06T01:32:51;19.73;;;10.98;;
52456;SDS011;38369;52.840;7.082;2024-03-06T01:35:18;15.38;;;10.85;;
52456;SDS011;38369;52.840;7.082;2024-03-06T01:37:44;15.85;;;10.77;;
52456;SDS011;38369;52.840;7.082;2024-03-06T01:40:10;18.52;;;11.38;;
52456;SDS011;38369;52.840;7.082;2024-03-06T01:42:37;15.73;;;9.63;;
52456;SDS011;38369;52.840;7.082;2024-03-06T01:45:03;16.95;;;10.85;;
52456;SDS011;38369;52.840;7.082;2024-03-06T01:47:30;19.20;;;11.32;;
52456;SDS011;38369;52.840;7.082;2024-03-06T01:49:56;24.73;;;11.68;;
52456;SDS011;38369;52.840;7.082;2024-03-06T01:52:22;19.80;;;11.60;;
52456;SDS011;38369;52.840;7.082;2024-03-06T01:54:48;14.15;;;10.60;;
52456;SDS011;38369;52.840;7.082;2024-03-06T01:57:15;17.33;;;11.45;;
52456;SDS011;38369;52.840;7.082;2024-03-06T01:59:42;23.75;;;10.13;;
52456;SDS011;38369;52.840;7.082;2024-03-06T02:02:08;16.88;;;10.38;;
52456;SDS011;38369;52.840;7.082;2024-03-06T02:04:36;17.95;;;10.40;;
52456;SDS011;38369;52.840;7.082;2024-03-06T02:07:02;20.05;;;10.93;;
52456;SDS011;38369;52.840;7.082;2024-03-06T02:09:28;17.27;;;10.05;;
52456;SDS011;38369;52.840;7.082;2024-03-06T02:11:54;16.55;;;10.70;;
52456;SDS011;38369;52.840;7.082;2024-03-06T02:14:20;14.75;;;9.75;;
52456;SDS011;38369;52.840;7.082;2024-03-06T02:16:46;17.88;;;10.95;;
52456;SDS011;38369;52.840;7.082;2024-03-06T02:19:12;16.33;;;10.82;;
52456;SDS011;38369;52.840;7.082;2024-03-06T02:21:39;17.05;;;11.02;;
52456;SDS011;38369;52.840;7.082;2024-03-06T02:24:05;14.15;;;10.35;;
52456;SDS011;38369;52.840;7.082;2024-03-06T02:26:33;17.00;;;10.40;;
52456;SDS011;38369;52.840;7.082;2024-03-06T02:28:59;17.83;;;11.20;;
52456;SDS011;38369;52.840;7.082;2024-03-06T02:31:25;15.73;;;10.70;;
52456;SDS011;38369;52.840;7.082;2024-03-06T02:33:51;15.50;;;10.93;;
52456;SDS011;38369;52.840;7.082;2024-03-06T02:36:17;24.88;;;12.38;;
52456;SDS011;38369;52.840;7.082;2024-03-06T02:38:44;15.68;;;10.15;;
52456;SDS011;38369;52.840;7.082;2024-03-06T02:41:10;17.90;;;11.63;;
52456;SDS011;38369;52.840;7.082;2024-03-06T02:43:37;22.38;;;11.20;;
52456;SDS011;38369;52.840;7.082;2024-03-06T02:46:03;16.83;;;10.40;;
52456;SDS011;38369;52.840;7.082;2024-03-06T02:48:29;19.70;;;11.27;;
52456;SDS011;38369;52.840;7.082;2024-03-06T02:50:55;18.50;;;12.05;;
52456;SDS011;38369;52.840;7.082;2024-03-06T02:53:21;17.52;;;11.25;;
52456;SDS011;38369;52.840;7.082;2024-03-06T02:55:47;14.73;;;10.40;;
52456;SDS011;38369;52.840;7.082;2024-03-06T02:58:14;17.17;;;11.93;;
52456;SDS011;38369;52.840;7.082;2024-03-06T03:00:41;20.25;;;12.00;;
52456;SDS011;38369;52.840;7.082;2024-03-06T03:03:07;17.48;;;11.77;;
52456;SDS011;38369;52.840;7.082;2024-03-06T03:05:33;17.05;;;11.05;;
52456;SDS011;38369;52.840;7.082;2024-03-06T03:07:59;17.10;;;10.95;;
52456;SDS011;38369;52.840;7.082;2024-03-06T03:10:25;22.58;;;11.90;;
52456;SDS011;38369;52.840;7.082;2024-03-06T03:12:52;16.63;;;12.23;;
52456;SDS011;38369;52.840;7.082;2024-03-06T03:15:18;18.30;;;11.73;;
52456;SDS011;38369;52.840;7.082;2024-03-06T03:17:44;16.33;;;12.18;;
52456;SDS011;38369;52.840;7.082;2024-03-06T03:20:10;19.58;;;12.60;;
52456;SDS011;38369;52.840;7.082;2024-03-06T03:22:37;22.50;;;12.13;;
52456;SDS011;38369;52.840;7.082;2024-03-06T03:25:03;20.70;;;11.27;;
52456;SDS011;38369;52.840;7.082;2024-03-06T03:27:32;21.58;;;12.30;;
52456;SDS011;38369;52.840;7.082;2024-03-06T03:29:58;16.65;;;11.75;;
52456;SDS011;38369;52.840;7.082;2024-03-06T03:32:24;21.80;;;11.93;;
52456;SDS011;38369;52.840;7.082;2024-03-06T03:34:50;19.08;;;12.15;;
52456;SDS011;38369;52.840;7.082;2024-03-06T03:37:16;19.65;;;12.07;;
52456;SDS011;38369;52.840;7.082;2024-03-06T03:39:45;17.15;;;12.65;;
52456;SDS011;38369;52.840;7.082;2024-03-06T03:42:11;17.80;;;11.38;;
52456;SDS011;38369;52.840;7.082;2024-03-06T03:44:37;17.35;;;11.70;;
52456;SDS011;38369;52.840;7.082;2024-03-06T03:47:04;23.83;;;11.75;;
52456;SDS011;38369;52.840;7.082;2024-03-06T03:49:30;19.13;;;12.48;;
52456;SDS011;38369;52.840;7.082;2024-03-06T03:51:56;23.80;;;12.95;;
52456;SDS011;38369;52.840;7.082;2024-03-06T03:54:22;17.92;;;12.30;;
52456;SDS011;38369;52.840;7.082;2024-03-06T03:56:48;19.02;;;12.48;;
52456;SDS011;38369;52.840;7.082;2024-03-06T03:59:14;19.45;;;12.57;;
52456;SDS011;38369;52.840;7.082;2024-03-06T04:01:40;16.70;;;12.15;;
52456;SDS011;38369;52.840;7.082;2024-03-06T04:04:06;17.33;;;11.50;;
52456;SDS011;38369;52.840;7.082;2024-03-06T04:06:33;18.08;;;12.32;;
52456;SDS011;38369;52.840;7.082;2024-03-06T04:08:59;18.17;;;12.55;;
52456;SDS011;38369;52.840;7.082;2024-03-06T04:11:25;22.98;;;13.20;;
52456;SDS011;38369;52.840;7.082;2024-03-06T04:13:51;16.70;;;12.25;;
52456;SDS011;38369;52.840;7.082;2024-03-06T04:16:17;21.23;;;13.60;;
52456;SDS011;38369;52.840;7.082;2024-03-06T04:18:43;19.92;;;12.35;;
52456;SDS011;38369;52.840;7.082;2024-03-06T04:21:10;22.08;;;11.95;;
52456;SDS011;38369;52.840;7.082;2024-03-06T04:23:36;19.83;;;13.80;;
52456;SDS011;38369;52.840;7.082;2024-03-06T04:26:03;19.52;;;12.32;;
52456;SDS011;38369;52.840;7.082;2024-03-06T04:28:29;23.13;;;12.55;;
52456;SDS011;38369;52.840;7.082;2024-03-06T04:30:55;20.50;;;12.90;;
52456;SDS011;38369;52.840;7.082;2024-03-06T04:33:21;22.75;;;14.52;;
52456;SDS011;38369;52.840;7.082;2024-03-06T04:35:47;20.63;;;13.13;;
52456;SDS011;38369;52.840;7.082;2024-03-06T04:38:13;20.30;;;12.85;;
52456;SDS011;38369;52.840;7.082;2024-03-06T04:40:39;22.23;;;13.70;;
52456;SDS011;38369;52.840;7.082;2024-03-06T04:43:06;22.17;;;14.52;;
52456;SDS011;38369;52.840;7.082;2024-03-06T04:45:32;19.45;;;13.45;;
52456;SDS011;38369;52.840;7.082;2024-03-06T04:47:58;19.00;;;12.63;;
52456;SDS011;38369;52.840;7.082;2024-03-06T04:50:24;20.10;;;13.25;;
52456;SDS011;38369;52.840;7.082;2024-03-06T04:52:50;18.02;;;13.27;;
52456;SDS011;38369;52.840;7.082;2024-03-06T04:55:16;20.85;;;13.70;;
52456;SDS011;38369;52.840;7.082;2024-03-06T04:57:47;22.02;;;14.40;;
52456;SDS011;38369;52.840;7.082;2024-03-06T05:00:13;20.17;;;14.20;;
52456;SDS011;38369;52.840;7.082;2024-03-06T05:02:39;22.55;;;13.10;;
52456;SDS011;38369;52.840;7.082;2024-03-06T05:05:07;23.88;;;14.07;;
52456;SDS011;38369;52.840;7.082;2024-03-06T05:07:36;24.25;;;15.38;;
52456;SDS011;38369;52.840;7.082;2024-03-06T05:10:02;24.92;;;13.77;;
52456;SDS011;38369;52.840;7.082;2024-03-06T05:12:28;23.60;;;14.52;;
52456;SDS011;38369;52.840;7.082;2024-03-06T05:14:54;19.23;;;13.48;;
52456;SDS011;38369;52.840;7.082;2024-03-06T05:17:21;21.30;;;14.18;;
52456;SDS011;38369;52.840;7.082;2024-03-06T05:19:48;21.10;;;13.70;;
52456;SDS011;38369;52.840;7.082;2024-03-06T05:22:15;23.40;;;15.30;;
52456;SDS011;38369;52.840;7.082;2024-03-06T05:24:41;22.77;;;14.32;;
52456;SDS011;38369;52.840;7.082;2024-03-06T05:27:07;23.10;;;14.25;;
52456;SDS011;38369;52.840;7.082;2024-03-06T05:29:35;24.38;;;14.10;;
52456;SDS011;38369;52.840;7.082;2024-03-06T05:32:01;22.75;;;14.60;;
52456;SDS011;38369;52.840;7.082;2024-03-06T05:34:28;22.98;;;14.52;;
52456;SDS011;38369;52.840;7.082;2024-03-06T05:36:55;19.90;;;14.85;;
52456;SDS011;38369;52.840;7.082;2024-03-06T05:39:22;20.80;;;14.00;;
52456;SDS011;38369;52.840;7.082;2024-03-06T05:41:48;21.63;;;14.15;;
52456;SDS011;38369;52.840;7.082;2024-03-06T05:44:14;23.20;;;14.43;;
52456;SDS011;38369;52.840;7.082;2024-03-06T05:46:40;19.40;;;13.43;;
52456;SDS011;38369;52.840;7.082;2024-03-06T05:49:06;19.98;;;14.13;;
52456;SDS011;38369;52.840;7.082;2024-03-06T05:51:32;22.95;;;14.68;;
52456;SDS011;38369;52.840;7.082;2024-03-06T05:53:58;19.52;;;14.15;;
52456;SDS011;38369;52.840;7.082;2024-03-06T05:56:24;25.67;;;14.18;;
52456;SDS011;38369;52.840;7.082;2024-03-06T05:58:50;23.25;;;14.40;;
52456;SDS011;38369;52.840;7.082;2024-03-06T06:01:16;21.95;;;14.50;;
52456;SDS011;38369;52.840;7.082;2024-03-06T06:03:48;24.05;;;14.27;;
52456;SDS011;38369;52.840;7.082;2024-03-06T06:06:15;25.70;;;14.07;;
52456;SDS011;38369;52.840;7.082;2024-03-06T06:08:41;21.33;;;14.15;;
52456;SDS011;38369;52.840;7.082;2024-03-06T06:11:09;19.33;;;14.27;;
52456;SDS011;38369;52.840;7.082;2024-03-06T06:13:35;21.63;;;14.35;;
52456;SDS011;38369;52.840;7.082;2024-03-06T06:16:01;20.50;;;14.77;;
52456;SDS011;38369;52.840;7.082;2024-03-06T06:18:29;23.65;;;14.93;;
52456;SDS011;38369;52.840;7.082;2024-03-06T06:20:57;22.15;;;13.32;;
52456;SDS011;38369;52.840;7.082;2024-03-06T06:23:23;22.10;;;14.90;;
52456;SDS011;38369;52.840;7.082;2024-03-06T06:25:48;22.88;;;15.02;;
52456;SDS011;38369;52.840;7.082;2024-03-06T06:28:15;23.92;;;14.15;;
52456;SDS011;38369;52.840;7.082;2024-03-06T06:30:41;21.38;;;14.88;;
52456;SDS011;38369;52.840;7.082;2024-03-06T06:33:07;22.05;;;14.05;;
52456;SDS011;38369;52.840;7.082;2024-03-06T06:35:33;21.92;;;14.20;;
52456;SDS011;38369;52.840;7.082;2024-03-06T06:38:02;25.77;;;13.85;;
52456;SDS011;38369;52.840;7.082;2024-03-06T06:40:29;17.83;;;12.05;;
52456;SDS011;38369;52.840;7.082;2024-03-06T06:42:56;19.75;;;12.90;;
52456;SDS011;38369;52.840;7.082;2024-03-06T06:45:22;21.60;;;13.88;;
52456;SDS011;38369;52.840;7.082;2024-03-06T06:47:48;24.85;;;15.25;;
52456;SDS011;38369;52.840;7.082;2024-03-06T06:50:15;20.65;;;14.38;;
52456;SDS011;38369;52.840;7.082;2024-03-06T06:52:41;24.08;;;13.63;;
52456;SDS011;38369;52.840;7.082;2024-03-06T06:55:07;20.52;;;13.60;;
52456;SDS011;38369;52.840;7.082;2024-03-06T06:57:36;19.48;;;13.93;;
52456;SDS011;38369;52.840;7.082;2024-03-06T07:00:02;20.02;;;13.20;;
52456;SDS011;38369;52.840;7.082;2024-03-06T07:02:36;20.30;;;13.15;;
52456;SDS011;38369;52.840;7.082;2024-03-06T07:05:02;18.33;;;13.55;;
52456;SDS011;38369;52.840;7.082;2024-03-06T07:07:29;23.65;;;15.20;;
52456;SDS011;38369;52.840;7.082;2024-03-06T07:09:55;23.70;;;15.50;;
52456;SDS011;38369;52.840;7.082;2024-03-06T07:12:22;21.90;;;14.15;;
52456;SDS011;38369;52.840;7.082;2024-03-06T07:14:47;22.88;;;14.93;;
52456;SDS011;38369;52.840;7.082;2024-03-06T07:17:13;21.67;;;13.27;;
52456;SDS011;38369;52.840;7.082;2024-03-06T07:19:39;19.48;;;13.50;;
52456;SDS011;38369;52.840;7.082;2024-03-06T07:22:06;21.33;;;14.25;;
52456;SDS011;38369;52.840;7.082;2024-03-06T07:24:32;20.27;;;14.38;;
52456;SDS011;38369;52.840;7.082;2024-03-06T07:26:59;23.33;;;14.95;;
52456;SDS011;38369;52.840;7.082;2024-03-06T07:29:26;16.00;;;12.57;;
52456;SDS011;38369;52.840;7.082;2024-03-06T07:31:52;21.42;;;14.00;;
52456;SDS011;38369;52.840;7.082;2024-03-06T07:34:19;21.60;;;14.63;;
52456;SDS011;38369;52.840;7.082;2024-03-06T07:36:46;21.85;;;14.48;;
52456;SDS011;38369;52.840;7.082;2024-03-06T07:39:12;21.48;;;14.07;;
52456;SDS011;38369;52.840;7.082;2024-03-06T07:41:39;22.05;;;15.82;;
52456;SDS011;38369;52.840;7.082;2024-03-06T07:44:05;20.35;;;15.10;;
52456;SDS011;38369;52.840;7.082;2024-03-06T07:46:31;22.23;;;14.05;;
52456;SDS011;38369;52.840;7.082;2024-03-06T07:48:57;19.67;;;14.30;;
52456;SDS011;38369;52.840;7.082;2024-03-06T07:51:23;21.77;;;15.02;;
52456;SDS011;38369;52.840;7.082;2024-03-06T07:53:49;19.55;;;14.27;;
52456;SDS011;38369;52.840;7.082;2024-03-06T07:56:15;25.02;;;15.00;;
52456;SDS011;38369;52.840;7.082;2024-03-06T07:58:42;20.48;;;14.32;;
52456;SDS011;38369;52.840;7.082;2024-03-06T08:01:08;23.25;;;15.23;;
52456;SDS011;38369;52.840;7.082;2024-03-06T08:03:34;20.77;;;15.20;;
52456;SDS011;38369;52.840;7.082;2024-03-06T08:06:00;22.13;;;13.90;;
52456;SDS011;38369;52.840;7.082;2024-03-06T08:08:27;23.40;;;14.85;;
52456;SDS011;38369;52.840;7.082;2024-03-06T08:10:53;22.17;;;14.95;;
52456;SDS011;38369;52.840;7.082;2024-03-06T08:13:19;22.00;;;15.18;;
52456;SDS011;38369;52.840;7.082;2024-03-06T08:15:45;25.48;;;15.18;;
52456;SDS011;38369;52.840;7.082;2024-03-06T08:18:11;22.40;;;15.18;;
52456;SDS011;38369;52.840;7.082;2024-03-06T08:20:38;20.88;;;15.23;;
52456;SDS011;38369;52.840;7.082;2024-03-06T08:23:04;24.08;;;15.48;;
52456;SDS011;38369;52.840;7.082;2024-03-06T08:25:30;25.40;;;15.30;;
52456;SDS011;38369;52.840;7.082;2024-03-06T08:27:58;23.30;;;16.25;;
52456;SDS011;38369;52.840;7.082;2024-03-06T08:30:24;21.33;;;15.40;;
52456;SDS011;38369;52.840;7.082;2024-03-06T08:32:50;20.88;;;15.10;;
52456;SDS011;38369;52.840;7.082;2024-03-06T08:35:17;26.83;;;16.48;;
52456;SDS011;38369;52.840;7.082;2024-03-06T08:37:46;25.88;;;15.50;;
52456;SDS011;38369;52.840;7.082;2024-03-06T08:40:12;25.33;;;16.73;;
52456;SDS011;38369;52.840;7.082;2024-03-06T08:42:42;25.42;;;16.00;;
52456;SDS011;38369;52.840;7.082;2024-03-06T08:45:08;29.48;;;16.95;;
52456;SDS011;38369;52.840;7.082;2024-03-06T08:47:34;25.77;;;16.38;;
52456;SDS011;38369;52.840;7.082;2024-03-06T08:50:01;23.20;;;15.45;;
52456;SDS011;38369;52.840;7.082;2024-03-06T08:52:27;26.98;;;16.15;;
52456;SDS011;38369;52.840;7.082;2024-03-06T08:54:53;27.65;;;17.83;;
52456;SDS011;38369;52.840;7.082;2024-03-06T08:57:19;30.42;;;17.42;;
52456;SDS011;38369;52.840;7.082;2024-03-06T08:59:47;27.00;;;17.80;;
52456;SDS011;38369;52.840;7.082;2024-03-06T09:02:17;29.38;;;17.95;;
52456;SDS011;38369;52.840;7.082;2024-03-06T09:04:44;28.73;;;17.38;;
52456;SDS011;38369;52.840;7.082;2024-03-06T09:07:11;31.42;;;18.65;;
52456;SDS011;38369;52.840;7.082;2024-03-06T09:09:37;26.85;;;16.85;;
52456;SDS011;38369;52.840;7.082;2024-03-06T09:14:31;28.83;;;17.13;;
52456;SDS011;38369;52.840;7.082;2024-03-06T09:16:57;31.95;;;18.15;;
52456;SDS011;38369;52.840;7.082;2024-03-06T09:19:23;30.42;;;19.23;;
52456;SDS011;38369;52.840;7.082;2024-03-06T09:21:49;25.17;;;16.83;;
52456;SDS011;38369;52.840;7.082;2024-03-06T09:24:15;32.28;;;18.90;;
52456;SDS011;38369;52.840;7.082;2024-03-06T09:26:41;29.63;;;19.83;;
52456;SDS011;38369;52.840;7.082;2024-03-06T09:29:07;29.88;;;19.33;;
52456;SDS011;38369;52.840;7.082;2024-03-06T09:31:33;28.05;;;17.85;;
52456;SDS011;38369;52.840;7.082;2024-03-06T09:33:58;36.83;;;19.55;;
52456;SDS011;38369;52.840;7.082;2024-03-06T09:36:24;32.42;;;18.27;;
52456;SDS011;38369;52.840;7.082;2024-03-06T09:38:51;37.95;;;19.23;;
52456;SDS011;38369;52.840;7.082;2024-03-06T09:41:17;31.70;;;20.38;;
52456;SDS011;38369;52.840;7.082;2024-03-06T09:43:44;30.77;;;20.55;;
52456;SDS011;38369;52.840;7.082;2024-03-06T09:46:10;35.55;;;20.38;;
52456;SDS011;38369;52.840;7.082;2024-03-06T09:48:36;36.92;;;20.75;;
52456;SDS011;38369;52.840;7.082;2024-03-06T09:51:04;29.85;;;19.65;;
52456;SDS011;38369;52.840;7.082;2024-03-06T09:53:30;41.08;;;21.23;;
52456;SDS011;38369;52.840;7.082;2024-03-06T09:55:56;34.10;;;20.50;;
52456;SDS011;38369;52.840;7.082;2024-03-06T09:58:24;40.30;;;21.02;;
52456;SDS011;38369;52.840;7.082;2024-03-06T10:00:50;33.65;;;21.05;;
52456;SDS011;38369;52.840;7.082;2024-03-06T10:03:16;34.28;;;21.35;;
52456;SDS011;38369;52.840;7.082;2024-03-06T10:05:42;30.52;;;19.58;;
52456;SDS011;38369;52.840;7.082;2024-03-06T10:08:08;33.90;;;20.30;;
52456;SDS011;38369;52.840;7.082;2024-03-06T10:10:35;29.42;;;19.40;;
52456;SDS011;38369;52.840;7.082;2024-03-06T10:13:02;32.72;;;20.27;;
52456;SDS011;38369;52.840;7.082;2024-03-06T10:15:28;42.67;;;21.90;;
52456;SDS011;38369;52.840;7.082;2024-03-06T10:18:13;38.63;;;22.52;;
52456;SDS011;38369;52.840;7.082;2024-03-06T10:20:39;39.00;;;21.90;;
52456;SDS011;38369;52.840;7.082;2024-03-06T10:23:07;33.30;;;21.45;;
52456;SDS011;38369;52.840;7.082;2024-03-06T10:25:34;37.15;;;21.35;;
52456;SDS011;38369;52.840;7.082;2024-03-06T10:28:07;41.92;;;22.88;;
52456;SDS011;38369;52.840;7.082;2024-03-06T10:30:34;37.72;;;20.17;;
52456;SDS011;38369;52.840;7.082;2024-03-06T10:33:01;41.72;;;23.33;;
52456;SDS011;38369;52.840;7.082;2024-03-06T10:35:27;34.47;;;20.65;;
52456;SDS011;38369;52.840;7.082;2024-03-06T10:37:54;36.88;;;23.13;;
52456;SDS011;38369;52.840;7.082;2024-03-06T10:40:21;35.00;;;21.13;;
52456;SDS011;38369;52.840;7.082;2024-03-06T10:42:48;41.00;;;23.50;;
52456;SDS011;38369;52.840;7.082;2024-03-06T10:45:14;36.42;;;22.02;;
52456;SDS011;38369;52.840;7.082;2024-03-06T10:47:41;38.03;;;22.33;;
52456;SDS011;38369;52.840;7.082;2024-03-06T10:50:10;36.27;;;22.53;;
52456;SDS011;38369;52.840;7.082;2024-03-06T10:52:38;37.22;;;23.10;;
52456;SDS011;38369;52.840;7.082;2024-03-06T10:55:04;38.45;;;22.17;;
52456;SDS011;38369;52.840;7.082;2024-03-06T10:57:30;36.60;;;21.65;;
52456;SDS011;38369;52.840;7.082;2024-03-06T10:59:58;41.33;;;23.25;;
52456;SDS011;38369;52.840;7.082;2024-03-06T11:02:25;35.47;;;23.30;;
52456;SDS011;38369;52.840;7.082;2024-03-06T11:04:53;39.13;;;24.02;;
52456;SDS011;38369;52.840;7.082;2024-03-06T11:07:19;37.35;;;22.35;;
52456;SDS011;38369;52.840;7.082;2024-03-06T11:09:45;37.35;;;22.85;;
52456;SDS011;38369;52.840;7.082;2024-03-06T11:12:31;38.10;;;22.42;;
52456;SDS011;38369;52.840;7.082;2024-03-06T11:14:58;35.13;;;21.67;;
52456;SDS011;38369;52.840;7.082;2024-03-06T11:17:27;34.92;;;22.48;;
52456;SDS011;38369;52.840;7.082;2024-03-06T11:23:01;39.20;;;21.70;;
52456;SDS011;38369;52.840;7.082;2024-03-06T11:25:59;38.67;;;22.50;;
52456;SDS011;38369;52.840;7.082;2024-03-06T11:28:04;34.53;;;21.90;;
52456;SDS011;38369;52.840;7.082;2024-03-06T11:30:30;33.53;;;21.10;;
52456;SDS011;38369;52.840;7.082;2024-03-06T11:32:57;39.42;;;23.05;;
52456;SDS011;38369;52.840;7.082;2024-03-06T11:35:24;38.05;;;23.23;;
52456;SDS011;38369;52.840;7.082;2024-03-06T11:37:50;33.80;;;22.77;;
52456;SDS011;38369;52.840;7.082;2024-03-06T11:40:22;39.58;;;23.17;;
52456;SDS011;38369;52.840;7.082;2024-03-06T11:42:49;35.08;;;22.70;;
52456;SDS011;38369;52.840;7.082;2024-03-06T11:45:16;36.00;;;22.42;;
52456;SDS011;38369;52.840;7.082;2024-03-06T11:48:01;38.13;;;24.23;;
52456;SDS011;38369;52.840;7.082;2024-03-06T11:50:28;37.28;;;23.50;;
52456;SDS011;38369;52.840;7.082;2024-03-06T11:52:56;35.92;;;22.13;;
52456;SDS011;38369;52.840;7.082;2024-03-06T11:55:23;36.78;;;23.15;;
52456;SDS011;38369;52.840;7.082;2024-03-06T11:57:52;36.35;;;22.17;;
52456;SDS011;38369;52.840;7.082;2024-03-06T12:00:21;40.30;;;23.00;;
52456;SDS011;38369;52.840;7.082;2024-03-06T12:02:48;31.92;;;21.17;;
52456;SDS011;38369;52.840;7.082;2024-03-06T12:05:14;34.15;;;22.05;;
52456;SDS011;38369;52.840;7.082;2024-03-06T12:07:47;34.35;;;22.73;;
52456;SDS011;38369;52.840;7.082;2024-03-06T12:10:18;34.45;;;21.90;;
52456;SDS011;38369;52.840;7.082;2024-03-06T12:12:44;34.65;;;22.88;;
52456;SDS011;38369;52.840;7.082;2024-03-06T12:15:10;33.40;;;20.90;;
52456;SDS011;38369;52.840;7.082;2024-03-06T12:17:44;32.67;;;22.45;;
52456;SDS011;38369;52.840;7.082;2024-03-06T12:20:11;36.60;;;22.75;;
52456;SDS011;38369;52.840;7.082;2024-03-06T12:22:59;34.58;;;22.20;;
52456;SDS011;38369;52.840;7.082;2024-03-06T12:25:25;35.75;;;22.60;;
52456;SDS011;38369;52.840;7.082;2024-03-06T12:27:52;37.45;;;23.75;;
52456;SDS011;38369;52.840;7.082;2024-03-06T12:30:19;33.58;;;23.02;;
52456;SDS011;38369;52.840;7.082;2024-03-06T12:32:58;36.08;;;24.52;;
52456;SDS011;38369;52.840;7.082;2024-03-06T12:35:28;36.88;;;24.08;;
52456;SDS011;38369;52.840;7.082;2024-03-06T12:37:54;32.55;;;21.45;;
52456;SDS011;38369;52.840;7.082;2024-03-06T12:40:20;34.75;;;23.77;;
52456;SDS011;38369;52.840;7.082;2024-03-06T12:42:46;33.42;;;22.20;;
52456;SDS011;38369;52.840;7.082;2024-03-06T12:45:12;37.85;;;22.73;;
52456;SDS011;38369;52.840;7.082;2024-03-06T12:47:42;37.13;;;22.65;;
52456;SDS011;38369;52.840;7.082;2024-03-06T12:50:08;30.65;;;21.65;;
52456;SDS011;38369;52.840;7.082;2024-03-06T12:52:35;38.15;;;23.38;;
52456;SDS011;38369;52.840;7.082;2024-03-06T12:55:01;38.80;;;23.25;;
52456;SDS011;38369;52.840;7.082;2024-03-06T12:57:30;33.05;;;22.33;;
52456;SDS011;38369;52.840;7.082;2024-03-06T12:59:56;33.75;;;21.48;;
52456;SDS011;38369;52.840;7.082;2024-03-06T13:02:22;32.50;;;21.17;;
52456;SDS011;38369;52.840;7.082;2024-03-06T13:04:48;32.17;;;23.13;;
52456;SDS011;38369;52.840;7.082;2024-03-06T13:07:14;36.00;;;22.35;;
52456;SDS011;38369;52.840;7.082;2024-03-06T13:09:40;35.65;;;22.52;;
52456;SDS011;38369;52.840;7.082;2024-03-06T13:12:06;32.20;;;21.13;;
52456;SDS011;38369;52.840;7.082;2024-03-06T13:14:32;37.40;;;23.10;;
52456;SDS011;38369;52.840;7.082;2024-03-06T13:16:59;32.33;;;22.83;;
52456;SDS011;38369;52.840;7.082;2024-03-06T13:19:25;39.85;;;22.55;;
52456;SDS011;38369;52.840;7.082;2024-03-06T13:21:51;32.78;;;22.27;;
52456;SDS011;38369;52.840;7.082;2024-03-06T13:24:17;34.47;;;23.15;;
52456;SDS011;38369;52.840;7.082;2024-03-06T13:26:44;40.80;;;22.25;;
52456;SDS011;38369;52.840;7.082;2024-03-06T13:29:10;32.67;;;23.52;;
52456;SDS011;38369;52.840;7.082;2024-03-06T13:31:36;32.60;;;22.35;;
52456;SDS011;38369;52.840;7.082;2024-03-06T13:34:03;32.13;;;21.38;;
52456;SDS011;38369;52.840;7.082;2024-03-06T13:36:29;27.77;;;19.98;;
52456;SDS011;38369;52.840;7.082;2024-03-06T13:38:58;28.00;;;21.27;;
52456;SDS011;38369;52.840;7.082;2024-03-06T13:41:24;30.70;;;21.08;;
52456;SDS011;38369;52.840;7.082;2024-03-06T13:43:50;38.17;;;23.05;;
52456;SDS011;38369;52.840;7.082;2024-03-06T13:46:16;34.58;;;23.73;;
52456;SDS011;38369;52.840;7.082;2024-03-06T13:48:42;30.42;;;21.70;;
52456;SDS011;38369;52.840;7.082;2024-03-06T13:51:08;32.38;;;22.65;;
52456;SDS011;38369;52.840;7.082;2024-03-06T13:53:34;32.50;;;20.98;;
52456;SDS011;38369;52.840;7.082;2024-03-06T13:56:01;31.30;;;21.40;;
52456;SDS011;38369;52.840;7.082;2024-03-06T13:58:27;32.20;;;20.80;;
52456;SDS011;38369;52.840;7.082;2024-03-06T14:00:53;35.05;;;22.55;;
52456;SDS011;38369;52.840;7.082;2024-03-06T14:03:19;36.83;;;21.60;;
52456;SDS011;38369;52.840;7.082;2024-03-06T14:05:47;31.92;;;22.65;;
52456;SDS011;38369;52.840;7.082;2024-03-06T14:08:13;36.35;;;23.15;;
52456;SDS011;38369;52.840;7.082;2024-03-06T14:10:41;34.60;;;23.45;;
52456;SDS011;38369;52.840;7.082;2024-03-06T14:13:07;33.25;;;22.85;;
52456;SDS011;38369;52.840;7.082;2024-03-06T14:15:34;33.72;;;22.60;;
52456;SDS011;38369;52.840;7.082;2024-03-06T14:18:00;29.25;;;20.25;;
52456;SDS011;38369;52.840;7.082;2024-03-06T14:20:29;35.50;;;22.38;;
52456;SDS011;38369;52.840;7.082;2024-03-06T14:22:55;35.88;;;23.25;;